Latest Coastal Weather Observations for Neptune Island

IDS60701

Issued at 10:51 pm CST Wednesday 24 May 2017 (issued every 10 minutes, with the page automatically refreshed every 10 minutes)

About coastal observations | Map of coastal stations | Coastal observations for SA | Marine services | Other Formats
Station Details ID: 018115 Name: NEPTUNE ISLAND Lat: -35.34 Lon: 136.12 Height: 32.0 m
Data from the previous 72 hours. | See also: Recent months at Neptune Island
Date/Time
CST
Temp
°C
Wind Pressure Rain since
9am
mm
Weather Cloud Vis
km
Sea
Height
m
Swell
Dir  Spd
kts
Gust
kts
hPa Trend Height
m
Period
s
Dir
24/10:30pm 16.3 NNW 17 19 1020.1 - 0.0 - - - - - - -
24/10:00pm 16.2 NNW 14 17 1020.1 - 0.0 - - - - - - -
24/09:30pm 16.2 NNW 14 17 1020.1 - 0.0 - - - - - - -
24/09:00pm 16.4 NNW 15 19 1019.7 - 0.0 - - - - - - -
24/08:30pm 16.5 WNW 11 13 1020.2 - 0.0 - - - - - - -
24/08:00pm 16.4 WNW 12 14 1020.2 - 0.0 - - - - - - -
24/07:30pm 16.1 W 10 11 1020.2 - 0.0 - - - - - - -
24/07:00pm 16.2 W 12 14 1020.3 - 0.0 - - - - - - -
24/06:30pm 15.9 W 10 13 1020.2 - 0.0 - - - - - - -
24/06:00pm 15.9 NW 11 12 1019.9 - 0.0 - - - - - - -
24/05:30pm 16.1 NW 10 12 1019.9 - 0.0 - - - - - - -
24/05:00pm 16.2 WNW 18 22 1020.0 - 0.0 - - - - - - -
24/04:43pm 16.8 WNW 13 22 1019.7 - 0.0 - - - - - - -
24/04:30pm 17.3 WNW 9 11 1019.7 - 0.0 - - - - - - -
24/04:00pm 17.6 WNW 11 13 1019.7 - 0.0 - - - - - - -
24/03:30pm 17.5 W 13 15 1019.7 - 0.0 - - - - - - -
24/03:00pm 17.7 W 13 16 1019.8 - 0.0 - - - - - - -
24/02:30pm 17.8 W 14 18 1019.3 - 0.0 - - - - - - -
24/02:00pm 17.6 W 14 16 1019.3 - 0.0 - - - - - - -
24/01:30pm 17.5 WSW 17 20 1019.5 - 0.0 - - - - - - -
24/01:00pm 17.4 WSW 21 24 1019.5 - 0.0 - - - - - - -
24/12:30pm 17.4 WSW 22 27 1019.7 - 0.0 - - - - - - -
24/12:00pm 17.6 W 21 26 1019.9 - 0.0 - - - - - - -
24/11:30am 17.3 WSW 15 20 1020.2 - 0.0 - - - - - - -
24/11:00am 17.3 WSW 15 20 1020.5 - 0.0 - - - - - - -
24/10:30am 17.0 WSW 15 18 1020.5 - 0.0 - - - - - - -
24/10:00am 17.4 W 21 25 1020.2 - 0.0 - - - - - - -
24/09:30am 16.7 W 18 22 1020.2 - 0.0 - - - - - - -
24/09:00am 16.6 W 15 17 1020.0 - 2.8 - - - - - - -
24/08:30am 16.3 WSW 17 21 1019.7 - 2.8 - - - - - - -
24/08:00am 16.2 WSW 19 24 1019.3 - 2.8 - - - - - - -
24/07:30am 16.1 WSW 18 24 1019.0 - 2.8 - - - - - - -
24/07:00am 16.1 WSW 19 22 1018.7 - 2.8 - - - - - - -
24/06:30am 16.1 WSW 16 19 1018.4 - 2.8 - - - - - - -
24/06:00am 16.0 WSW 19 22 1018.3 - 2.8 - - - - - - -
24/05:30am 16.0 WSW 18 21 1018.1 - 2.8 - - - - - - -
24/05:00am 16.1 WSW 22 25 1017.8 - 2.8 - - - - - - -
24/04:30am 15.9 WSW 23 27 1017.4 - 2.8 - - - - - - -
24/04:00am 16.0 WSW 23 26 1017.2 - 2.8 - - - - - - -
24/03:30am 16.1 WSW 24 28 1017.0 - 2.8 - - - - - - -
24/03:00am 16.0 WSW 23 26 1016.9 - 2.8 - - - - - - -
24/02:30am 15.9 WSW 23 28 1016.5 - 2.8 - - - - - - -
24/02:00am 16.0 WSW 26 31 1016.2 - 2.8 - - - - - - -
24/01:30am 15.9 WSW 26 30 1016.2 - 2.8 - - - - - - -
24/01:00am 16.0 WSW 29 35 1016.0 - 2.8 - - - - - - -
24/12:30am 16.1 WSW 27 33 1016.1 - 2.8 - - - - - - -
24/12:00am 16.1 WSW 26 30 1016.2 - 2.8 - - - - - - -
 
Date/Time
CST
Temp
°C
Wind Pressure Rain since
9am
mm
Weather Cloud Vis
km
Sea
Height
m
Swell
Dir  Spd
kts
Gust
kts
hPa Trend Height
m
Period
s
Dir
23/11:30pm 15.8 WSW 28 34 1016.2 - 2.8 - - - - - - -
23/11:00pm 15.5 WSW 23 29 1015.8 - 2.8 - - - - - - -
23/10:30pm 16.1 WSW 24 28 1015.9 - 1.4 - - - - - - -
23/10:00pm 16.6 WSW 28 33 1015.5 - 1.4 - - - - - - -
23/09:30pm 16.5 W 25 30 1015.5 - 1.4 - - - - - - -
23/09:00pm 16.2 W 23 28 1015.3 - 1.4 - - - - - - -
23/08:30pm 15.9 W 22 27 1015.2 - 1.4 - - - - - - -
23/08:00pm 15.6 WNW 22 26 1015.1 - 1.4 - - - - - - -
23/07:53pm 15.6 WNW 22 27 1015.2 - 1.4 - - - - - - -
23/07:30pm 15.9 W 23 28 1014.9 - 1.4 - - - - - - -
23/07:00pm 15.9 WNW 23 26 1014.7 - 1.4 - - - - - - -
23/06:30pm 16.5 W 26 32 1014.2 - 1.2 - - - - - - -
23/06:00pm 16.9 W 26 30 1014.0 - 1.2 - - - - - - -
23/05:30pm 16.7 W 29 34 1013.8 - 1.2 - - - - - - -
23/05:00pm 16.7 W 27 32 1013.6 - 1.2 - - - - - - -
23/04:30pm 16.8 W 27 32 1013.4 - 1.2 - - - - - - -
23/04:00pm 16.8 W 30 38 1013.2 - 1.2 - - - - - - -
23/03:30pm 16.0 WNW 27 34 1013.2 - 1.2 - - - - - - -
23/03:00pm 16.8 W 29 33 1013.0 - 1.2 Recent precip. - - - - - -
23/02:30pm 16.4 W 24 29 1013.0 - 1.2 - - - - - - -
23/02:00pm 15.8 WNW 24 28 1013.2 - 0.8 - - - - - - -
23/01:47pm 15.8 WNW 29 39 1013.0 - 0.2 - - - - - - -
23/01:30pm 17.2 WNW 26 32 1013.1 - 0.2 - - - - - - -
23/01:00pm 17.0 WNW 26 32 1013.4 - 0.2 - - - - - - -
23/12:30pm 16.6 NW 26 31 1013.7 - 0.2 - - - - - - -
23/12:02pm 16.7 NW 21 31 1014.0 - 0.2 - - - - - - -
23/12:00pm 16.8 NW 20 28 1014.2 - 0.2 - - - - - - -
23/11:30am 16.4 NW 20 24 1014.7 - 0.2 - - - - - - -
23/11:00am 16.3 NNW 19 23 1015.0 - 0.2 - - - - - - -
23/10:30am 16.9 NNW 20 24 1015.1 - 0.0 - - - - - - -
23/10:00am 16.4 NNW 18 20 1015.4 - 0.0 - - - - - - -
23/09:30am 15.4 NNW 19 25 1015.2 - 0.0 - - - - - - -
23/09:00am 15.2 NW 14 17 1015.2 - 3.4 Recent precip. - - - - - -
23/08:34am 14.8 NW 20 28 1015.3 - 3.4 - - - - - - -
23/08:30am 14.5 NW 20 28 1015.1 - 3.4 - - - - - - -
23/08:00am 14.6 NNW 18 20 1014.9 - 2.8 - - - - - - -
23/07:30am 14.7 NNW 16 22 1014.8 - 2.8 - - - - - - -
23/07:11am 14.6 NW 19 26 1014.9 - 2.8 - - - - - - -
23/07:00am 14.2 WNW 21 28 1015.0 - 2.2 - - - - - - -
23/06:53am 15.1 NW 18 22 1015.0 - 0.0 - - - - - - -
23/06:30am 15.6 NNW 21 24 1014.4 - 0.0 - - - - - - -
23/06:00am 15.6 NNW 20 23 1014.4 - 0.0 - - - - - - -
23/05:30am 15.9 NNW 17 21 1014.5 - 0.0 - - - - - - -
23/05:00am 15.9 NNW 17 19 1014.4 - 0.0 - - - - - - -
23/04:30am 16.3 NW 17 20 1014.4 - 0.0 - - - - - - -
23/04:00am 16.2 WNW 15 19 1014.5 - 0.0 - - - - - - -
23/03:30am 16.1 WNW 15 19 1014.6 - 0.0 - - - - - - -
23/03:00am 16.2 WNW 17 20 1014.8 - 0.0 - - - - - - -
23/02:30am 16.3 WNW 16 19 1014.8 - 0.0 - - - - - - -
23/02:00am 16.1 WNW 17 22 1014.9 - 0.0 - - - - - - -
23/01:30am 16.1 WNW 17 21 1014.9 - 0.0 - - - - - - -
23/01:00am 16.1 W 17 20 1015.1 - 0.0 - - - - - - -
23/12:30am 16.1 WNW 16 19 1015.2 - 0.0 - - - - - - -
23/12:00am 16.0 W 16 19 1015.3 - 0.0 - - - - - - -
 
Date/Time
CST
Temp
°C
Wind Pressure Rain since
9am
mm
Weather Cloud Vis
km
Sea
Height
m
Swell
Dir  Spd
kts
Gust
kts
hPa Trend Height
m
Period
s
Dir
22/11:30pm 15.8 W 14 17 1015.4 - 0.0 - - - - - - -
22/11:00pm 16.4 W 17 24 1015.2 - 0.0 - - - - - - -
22/10:30pm 16.3 W 15 18 1015.1 - 0.0 - - - - - - -
22/10:00pm 16.5 W 16 19 1015.0 - 0.0 - - - - - - -
22/09:30pm 16.4 W 18 22 1014.9 - 0.0 - - - - - - -
22/09:00pm 16.4 WSW 19 22 1014.5 - 0.0 - - - - - - -
22/08:30pm 16.8 W 18 21 1014.2 - 0.0 - - - - - - -
22/08:00pm 16.9 W 19 22 1013.7 - 0.0 - - - - - - -
22/07:30pm 16.9 W 19 23 1013.2 - 0.0 - - - - - - -
22/07:00pm 17.1 W 20 24 1012.8 - 0.0 - - - - - - -
22/06:30pm 17.2 W 21 25 1012.3 - 0.0 - - - - - - -
22/06:00pm 17.3 W 23 27 1011.8 - 0.0 - - - - - - -
22/05:30pm 17.6 WNW 21 25 1011.2 - 0.0 - - - - - - -
22/05:00pm 17.7 W 19 23 1010.8 - 0.0 - - - - - - -
22/04:30pm 17.9 WNW 18 23 1010.5 - 0.0 - - - - - - -
22/04:00pm 17.6 WNW 21 25 1010.2 - 0.0 - - - - - - -
22/03:30pm 17.5 WNW 21 25 1009.6 - 0.0 - - - - - - -
22/03:00pm 17.5 NW 24 29 1009.0 - 0.0 - - - - - - -
22/02:30pm 17.8 WNW 22 28 1008.9 - 0.0 - - - - - - -
22/02:00pm 18.7 WNW 26 32 1009.2 - 0.0 - - - - - - -
22/01:30pm 19.2 NW 28 35 1008.6 - 0.0 - - - - - - -
22/01:04pm 20.6 NW 26 39 1008.3 - 0.0 - - - - - - -
22/01:01pm 21.0 NW 22 32 1008.5 - 0.0 - - - - - - -
22/01:00pm 21.0 NW 21 30 1008.5 - 0.0 - - - - - - -
22/12:30pm 20.6 NNW 19 24 1008.6 - 0.0 - - - - - - -
22/12:00pm 21.4 N 16 23 1008.8 - 0.0 - - - - - - -
22/11:30am 20.3 N 23 29 1009.1 - 0.0 - - - - - - -
22/11:00am 19.7 N 27 32 1009.1 - 0.0 - - - - - - -
22/10:30am 19.4 N 29 35 1009.2 - 0.0 - - - - - - -
22/10:00am 19.1 N 26 31 1009.4 - 0.0 - - - - - - -
22/09:30am 19.5 N 25 30 1009.0 - 0.0 - - - - - - -
22/09:00am 18.3 N 23 26 1009.4 - 0.0 - - - - - - -
22/08:30am 18.2 N 24 28 1009.0 - 0.0 - - - - - - -
22/08:00am 18.4 NNE 22 26 1009.0 - 0.0 - - - - - - -
22/07:30am 18.4 NNE 28 32 1008.9 - 0.0 - - - - - - -
22/07:00am 18.4 NNE 30 34 1008.7 - 0.0 - - - - - - -
22/06:30am 18.0 NNE 28 34 1008.8 - 0.0 - - - - - - -
22/06:09am 17.9 NNE 35 45 1008.7 - 0.0 - - - - - - -
22/06:00am 17.8 NNE 31 43 1008.1 - 0.0 - - - - - - -
22/05:57am 17.7 NNE 27 43 1008.4 - 0.0 - - - - - - -
22/05:55am 17.3 N 25 39 1008.8 - 0.0 - - - - - - -
22/05:30am 18.0 NNE 26 30 1009.2 - 0.0 - - - - - - -
22/05:00am 17.9 NNE 26 30 1008.8 - 0.0 - - - - - - -
22/04:30am 17.9 NNE 26 31 1009.2 - 0.0 - - - - - - -
22/04:00am 18.0 NNE 26 30 1009.5 - 0.0 - - - - - - -
22/03:30am 18.0 NNE 26 29 1009.9 - 0.0 - - - - - - -
22/03:00am 17.9 NNE 22 26 1010.3 - 0.0 - - - - - - -
22/02:30am 17.9 NNE 22 27 1010.6 - 0.0 - - - - - - -
22/02:00am 17.9 NNE 23 26 1011.0 - 0.0 - - - - - - -
22/01:30am 18.1 NNE 23 26 1011.4 - 0.0 - - - - - - -
22/01:00am 18.0 NNE 22 26 1011.8 - 0.0 - - - - - - -
22/12:30am 18.3 NNE 22 26 1012.2 - 0.0 - - - - - - -
22/12:00am 18.3 N 24 27 1012.4 - 0.0 - - - - - - -
 
Date/Time
CST
Temp
°C
Wind Pressure Rain since
9am
mm
Weather Cloud Vis
km
Sea
Height
m
Swell
Dir  Spd
kts
Gust
kts
hPa Trend Height
m
Period
s
Dir
21/11:30pm 18.2 N 24 27 1012.5 - 0.0 - - - - - - -
21/11:00pm 18.2 NNE 21 25 1012.6 - 0.0 - - - - - - -

Other Formats:

Comma delimited format used in spreadsheet applications
http://www.bom.gov.au/fwo/IDS60701/IDS60701.94804.axf

JavaScript Object Notation format (JSON) in row-major order
http://www.bom.gov.au/fwo/IDS60701/IDS60701.94804.json